Search for airport 
image banner adimage banner adimage banner ad
image banner ad

PN77 - Snyder Office

Located in Kittanning, United States

ICAO - PN77, IATA -

Data provided by Airmate  

General information

Coordinates: N40°49'1" W79°33'56"
Elevation is 1160 feet MSL.
 
View others Airports in Pennsylvania

Operational data

Special qualification required
Current time UTC:
Current local time:
METAR: KBTP 091310Z AUTO 14004KT 9SM -RA BKN027 OVC034 06/03 A3004 RMK AO2 P0000
View NOTAMs / SUP AIP / TFR affecting this airport [VIEW]
Communications frequencies: [VIEW]

Runways:

Airport contact information

Address: Kittanning United States

Satellite view of PN77